createdAt,value
2018-08-20T00:01:35.533Z,11.47
2018-08-20T00:04:07.037Z,12.85
2018-08-20T00:06:48.472Z,12.03
2018-08-20T00:09:16.957Z,11.88
2018-08-20T00:11:45.452Z,11.10
2018-08-20T00:14:13.749Z,11.13
2018-08-20T00:16:42.037Z,10.87
2018-08-20T00:19:13.252Z,10.70
2018-08-20T00:21:41.989Z,10.73
2018-08-20T00:24:10.261Z,10.70
2018-08-20T00:26:38.537Z,10.13
2018-08-20T00:29:07.089Z,9.80
2018-08-20T00:31:35.861Z,9.67
2018-08-20T00:34:05.049Z,9.53
2018-08-20T00:36:33.324Z,9.80
2018-08-20T00:39:01.653Z,10.00
2018-08-20T00:41:33.880Z,10.00
2018-08-20T00:44:02.225Z,9.83
2018-08-20T00:46:30.803Z,9.53
2018-08-20T00:48:59.077Z,10.17
2018-08-20T00:51:27.335Z,10.17
2018-08-20T00:53:59.812Z,10.70
2018-08-20T00:56:28.131Z,11.20
2018-08-20T00:58:56.413Z,10.30
2018-08-20T01:01:24.701Z,9.80
2018-08-20T01:03:52.959Z,10.77
2018-08-20T01:06:21.254Z,10.47
2018-08-20T01:08:49.488Z,9.73
2018-08-20T01:11:17.821Z,9.48
2018-08-20T01:13:46.105Z,9.63
2018-08-20T01:16:14.427Z,9.38
2018-08-20T01:18:42.736Z,9.80
2018-08-20T01:21:11.176Z,10.28
2018-08-20T01:23:39.412Z,11.45
2018-08-20T01:26:07.674Z,11.67
2018-08-20T01:28:35.987Z,11.53
2018-08-20T01:31:05.359Z,11.30
2018-08-20T01:33:33.631Z,11.43
2018-08-20T01:36:01.913Z,11.57
2018-08-20T01:38:30.204Z,12.50
2018-08-20T01:40:58.438Z,12.27
2018-08-20T01:43:26.740Z,12.93
2018-08-20T01:45:55.045Z,13.13
2018-08-20T01:48:23.295Z,13.90
2018-08-20T01:50:51.547Z,14.17
2018-08-20T01:53:19.818Z,14.93
2018-08-20T01:55:48.137Z,15.93
2018-08-20T01:58:16.432Z,16.77
2018-08-20T02:00:44.823Z,17.60
2018-08-20T02:03:13.143Z,17.60
2018-08-20T02:05:41.399Z,19.13
2018-08-20T02:08:09.672Z,18.93
2018-08-20T02:10:37.952Z,19.27
2018-08-20T02:13:06.456Z,17.97
2018-08-20T02:15:34.799Z,20.43
2018-08-20T02:18:03.100Z,19.77
2018-08-20T02:20:31.517Z,17.53
2018-08-20T02:22:59.831Z,19.57
2018-08-20T02:25:28.125Z,20.27
2018-08-20T02:27:56.443Z,16.77
2018-08-20T02:30:24.740Z,19.73
2018-08-20T02:32:52.986Z,18.50
2018-08-20T02:35:21.298Z,18.20
2018-08-20T02:37:49.636Z,18.67
2018-08-20T02:40:18.546Z,18.17
2018-08-20T02:42:47.037Z,18.73
2018-08-20T02:45:22.542Z,18.37
2018-08-20T02:47:50.868Z,17.97
2018-08-20T02:50:19.174Z,17.97
2018-08-20T02:52:47.451Z,17.33
2018-08-20T02:55:15.781Z,18.43
2018-08-20T02:57:44.127Z,17.87
2018-08-20T03:00:13.954Z,16.50
2018-08-20T03:02:42.226Z,16.43
2018-08-20T03:05:11.568Z,15.40
2018-08-20T03:07:39.879Z,15.73
2018-08-20T03:10:09.914Z,14.73
2018-08-20T03:12:38.190Z,14.67
2018-08-20T03:15:11.664Z,14.63
2018-08-20T03:17:39.972Z,15.13
2018-08-20T03:20:08.304Z,14.30
2018-08-20T03:22:36.856Z,13.70
2018-08-20T03:25:06.019Z,14.50
2018-08-20T03:27:34.851Z,13.47
2018-08-20T03:30:03.165Z,12.60
2018-08-20T03:32:31.455Z,13.45
2018-08-20T03:34:59.883Z,11.60
2018-08-20T03:37:28.253Z,10.17
2018-08-20T03:39:56.533Z,11.57
2018-08-20T03:42:24.817Z,11.10
2018-08-20T03:44:53.236Z,10.70
2018-08-20T03:47:21.683Z,10.43
2018-08-20T03:49:50.351Z,10.45
2018-08-20T03:52:18.618Z,10.83
2018-08-20T03:54:51.491Z,11.17
2018-08-20T03:57:19.767Z,10.97
2018-08-20T03:59:48.052Z,9.67
2018-08-20T04:02:16.360Z,11.00
2018-08-20T04:04:44.649Z,9.77
2018-08-20T04:07:12.945Z,10.32
2018-08-20T04:09:41.219Z,9.83
2018-08-20T04:12:09.517Z,10.20
2018-08-20T04:14:37.767Z,9.73
2018-08-20T04:17:06.134Z,9.70
2018-08-20T04:19:34.474Z,9.90
2018-08-20T04:22:02.783Z,10.30
2018-08-20T04:24:31.083Z,9.97
2018-08-20T04:26:59.402Z,10.07
2018-08-20T04:29:27.732Z,9.57
2018-08-20T04:31:56.182Z,9.50
2018-08-20T04:34:25.473Z,10.37
2018-08-20T04:36:53.787Z,9.23
2018-08-20T04:39:22.222Z,9.47
2018-08-20T04:41:50.554Z,10.33
2018-08-20T04:44:18.835Z,8.70
2018-08-20T04:46:47.169Z,8.60
2018-08-20T04:49:15.490Z,8.90
2018-08-20T04:51:43.953Z,8.47
2018-08-20T04:54:12.244Z,8.73
2018-08-20T04:56:40.532Z,8.20
2018-08-20T04:59:08.872Z,7.83
2018-08-20T05:01:37.156Z,7.90
2018-08-20T05:04:05.587Z,7.70
2018-08-20T05:06:33.801Z,7.60
2018-08-20T05:09:02.186Z,8.43
2018-08-20T05:11:30.749Z,7.87
2018-08-20T05:13:59.072Z,7.40
2018-08-20T05:16:27.384Z,7.53
2018-08-20T05:19:00.608Z,7.70
2018-08-20T05:21:29.017Z,7.87
2018-08-20T05:23:57.310Z,8.20
2018-08-20T05:26:25.667Z,8.50
2018-08-20T05:28:53.972Z,8.87
2018-08-20T05:31:22.389Z,8.87
2018-08-20T05:33:50.662Z,9.50
2018-08-20T05:36:18.978Z,9.43
2018-08-20T05:38:47.309Z,10.33
2018-08-20T05:41:15.638Z,10.43
2018-08-20T05:43:43.928Z,11.47
2018-08-20T05:46:12.253Z,11.70
2018-08-20T05:48:40.593Z,12.37
2018-08-20T05:51:08.878Z,11.30
2018-08-20T05:53:37.171Z,12.60
2018-08-20T05:56:05.512Z,11.73
2018-08-20T05:58:34.329Z,13.10
2018-08-20T06:01:02.627Z,12.97
2018-08-20T06:03:30.925Z,13.80
2018-08-20T06:05:59.185Z,14.50
2018-08-20T06:08:27.509Z,15.37
2018-08-20T06:10:55.853Z,15.97
2018-08-20T06:13:25.131Z,16.00
2018-08-20T06:15:53.505Z,15.70
2018-08-20T06:18:21.834Z,16.53
2018-08-20T06:20:51.704Z,17.80
2018-08-20T06:23:20.142Z,19.90
2018-08-20T06:25:48.463Z,19.53
2018-08-20T06:28:16.832Z,20.88
2018-08-20T06:30:45.129Z,21.47
2018-08-20T06:33:13.422Z,22.53
2018-08-20T06:35:41.791Z,20.87
2018-08-20T06:38:10.200Z,22.52
2018-08-20T06:40:38.515Z,21.23
2018-08-20T06:43:06.979Z,21.80
2018-08-20T06:45:35.305Z,21.07
2018-08-20T06:48:03.873Z,22.17
2018-08-20T06:50:32.205Z,22.30
2018-08-20T06:53:00.540Z,23.22
2018-08-20T06:55:28.903Z,24.53
2018-08-20T06:57:57.472Z,25.30
2018-08-20T07:00:26.006Z,26.70
2018-08-20T07:02:54.372Z,23.93
2018-08-20T07:05:22.934Z,26.57
2018-08-20T07:07:51.269Z,27.33
2018-08-20T07:10:19.570Z,28.67
2018-08-20T07:12:47.931Z,27.43
2018-08-20T07:15:16.363Z,29.90
2018-08-20T07:17:44.862Z,29.03
2018-08-20T07:20:14.707Z,28.30
2018-08-20T07:22:43.321Z,30.37
2018-08-20T07:25:11.969Z,29.07
2018-08-20T07:27:40.261Z,29.93
2018-08-20T07:30:09.877Z,30.83
2018-08-20T07:32:38.397Z,30.67
2018-08-20T07:35:07.237Z,31.33
2018-08-20T07:37:35.526Z,30.63
2018-08-20T07:40:06.228Z,30.88
2018-08-20T07:42:34.652Z,30.43
2018-08-20T07:45:03.084Z,29.93
2018-08-20T07:47:31.396Z,29.63
2018-08-20T07:49:59.691Z,31.03
2018-08-20T07:52:28.090Z,29.87
2018-08-20T07:54:57.188Z,30.67
2018-08-20T07:57:26.246Z,30.93
2018-08-20T07:59:54.645Z,30.97
2018-08-20T08:02:22.959Z,31.97
2018-08-20T08:04:51.276Z,31.23
2018-08-20T08:07:19.597Z,31.57
2018-08-20T08:09:48.033Z,30.77
2018-08-20T08:12:16.335Z,31.87
2018-08-20T08:14:44.673Z,29.90
2018-08-20T08:17:13.025Z,32.35
2018-08-20T08:19:41.366Z,32.77
2018-08-20T08:22:09.933Z,31.93
2018-08-20T08:24:38.232Z,32.57
2018-08-20T08:27:06.786Z,31.23
2018-08-20T08:29:35.145Z,33.67
2018-08-20T08:32:03.513Z,33.43
2018-08-20T08:34:31.901Z,33.23
2018-08-20T08:37:00.353Z,31.47
2018-08-20T08:39:28.791Z,32.97
2018-08-20T08:41:57.170Z,31.37
2018-08-20T08:44:25.528Z,33.13
2018-08-20T08:46:53.852Z,33.78
2018-08-20T08:49:22.211Z,32.40
2018-08-20T08:51:50.539Z,32.47
2018-08-20T08:54:18.861Z,33.23
2018-08-20T08:56:47.168Z,33.87
2018-08-20T08:59:15.482Z,31.90
2018-08-20T09:01:43.813Z,33.67
2018-08-20T09:04:12.256Z,33.63
2018-08-20T09:06:40.610Z,32.23
2018-08-20T09:09:09.008Z,33.60
2018-08-20T09:11:37.304Z,33.27
2018-08-20T09:14:05.667Z,33.73
2018-08-20T09:16:34.557Z,34.10
2018-08-20T09:19:02.893Z,33.47
2018-08-20T09:21:31.251Z,34.07
2018-08-20T09:23:59.637Z,34.43
2018-08-20T09:26:27.958Z,33.63
2018-08-20T09:28:56.390Z,35.90
2018-08-20T09:31:25.372Z,35.00
2018-08-20T09:33:54.789Z,32.63
2018-08-20T09:36:23.155Z,33.93
2018-08-20T09:38:52.023Z,34.77
2018-08-20T09:41:20.332Z,34.00
2018-08-20T09:43:49.053Z,34.23
2018-08-20T09:46:17.380Z,32.28
2018-08-20T09:48:46.217Z,32.93
2018-08-20T09:51:14.551Z,34.43
2018-08-20T09:53:42.889Z,35.60
2018-08-20T09:56:11.274Z,32.57
2018-08-20T09:58:39.624Z,35.53
2018-08-20T10:01:07.980Z,34.30
2018-08-20T10:03:36.282Z,33.87
2018-08-20T10:06:04.948Z,33.73
2018-08-20T10:08:33.244Z,32.63
2018-08-20T10:11:01.586Z,32.30
2018-08-20T10:13:29.888Z,30.97
2018-08-20T10:15:58.207Z,33.00
2018-08-20T10:18:26.647Z,33.23
2018-08-20T10:20:54.935Z,32.87
2018-08-20T10:23:23.253Z,33.60
2018-08-20T10:25:51.608Z,31.30
2018-08-20T10:28:19.890Z,31.93
2018-08-20T10:30:48.248Z,30.03
2018-08-20T10:33:16.556Z,30.07
2018-08-20T10:35:44.911Z,29.43
2018-08-20T10:38:13.279Z,30.03
2018-08-20T10:40:41.736Z,29.23
2018-08-20T10:43:10.148Z,28.90
2018-08-20T10:45:43.701Z,29.10
2018-08-20T10:48:12.080Z,27.27
2018-08-20T10:50:40.468Z,28.47
2018-08-20T10:53:08.768Z,28.37
2018-08-20T10:55:37.092Z,26.70
2018-08-20T10:58:05.426Z,27.13
2018-08-20T11:00:34.701Z,25.20
2018-08-20T11:03:03.212Z,25.13
2018-08-20T11:05:31.594Z,26.63
2018-08-20T11:07:59.962Z,27.30
2018-08-20T11:10:28.344Z,26.27
2018-08-20T11:12:56.749Z,24.67
2018-08-20T11:15:25.063Z,23.77
2018-08-20T11:17:53.380Z,23.37
2018-08-20T11:20:21.727Z,23.13
2018-08-20T11:22:50.019Z,23.80
2018-08-20T11:25:18.325Z,23.60
2018-08-20T11:27:50.919Z,22.10
2018-08-20T11:30:19.347Z,24.27
2018-08-20T11:32:47.671Z,23.60
2018-08-20T11:35:16.022Z,24.83
2018-08-20T11:37:44.314Z,23.80
2018-08-20T11:40:12.721Z,25.63
2018-08-20T11:42:41.028Z,23.63
2018-08-20T11:45:12.331Z,24.60
2018-08-20T11:47:40.807Z,23.63
2018-08-20T11:50:09.413Z,23.90
2018-08-20T11:52:38.389Z,22.90
2018-08-20T11:55:06.707Z,22.73
2018-08-20T11:57:35.232Z,23.20
2018-08-20T12:00:03.648Z,23.60
2018-08-20T12:02:32.882Z,24.60
2018-08-20T12:05:01.206Z,24.30
2018-08-20T12:07:29.536Z,24.70
2018-08-20T12:09:57.841Z,23.33
2018-08-20T12:12:26.262Z,20.73
2018-08-20T12:14:54.678Z,18.77
2018-08-20T12:17:23.108Z,17.85
2018-08-20T12:19:51.371Z,16.33
2018-08-20T12:22:19.686Z,15.93
2018-08-20T12:24:48.006Z,13.97
2018-08-20T12:27:16.328Z,13.57
2018-08-20T12:29:44.638Z,13.03
2018-08-20T12:32:12.976Z,12.40
2018-08-20T12:34:41.344Z,11.70
2018-08-20T12:37:09.810Z,11.33
2018-08-20T12:39:38.209Z,10.77
2018-08-20T12:42:06.611Z,10.73
2018-08-20T12:44:34.953Z,10.93
2018-08-20T12:47:03.276Z,11.37
2018-08-20T12:49:31.749Z,12.30
2018-08-20T12:52:00.141Z,13.00
2018-08-20T12:54:28.467Z,12.43
2018-08-20T12:56:56.832Z,11.70
2018-08-20T12:59:25.139Z,11.67
2018-08-20T13:01:53.481Z,11.77
2018-08-20T13:04:21.796Z,14.37
2018-08-20T13:06:56.200Z,13.10
2018-08-20T13:09:24.536Z,12.57
2018-08-20T13:11:52.839Z,12.00
2018-08-20T13:14:21.935Z,12.47
2018-08-20T13:16:50.250Z,12.97
2018-08-20T13:19:18.552Z,13.10
2018-08-20T13:21:46.915Z,12.83
2018-08-20T13:24:15.242Z,13.37
2018-08-20T13:26:43.628Z,13.87
2018-08-20T13:29:11.933Z,13.50
2018-08-20T13:31:40.363Z,13.93
2018-08-20T13:34:08.675Z,14.53
2018-08-20T13:36:37.043Z,13.87
2018-08-20T13:39:06.925Z,12.93
2018-08-20T13:41:35.291Z,12.67
2018-08-20T13:44:03.964Z,12.37
2018-08-20T13:46:33.078Z,13.80
2018-08-20T13:49:01.417Z,9.43
2018-08-20T13:51:30.342Z,8.53
2018-08-20T13:53:59.352Z,8.10
2018-08-20T13:56:27.753Z,7.83
2018-08-20T13:58:56.642Z,6.90
2018-08-20T14:01:25.097Z,5.80
2018-08-20T14:03:53.486Z,5.40
2018-08-20T14:06:21.776Z,5.60
2018-08-20T14:08:50.079Z,5.43
2018-08-20T14:11:18.406Z,5.70
2018-08-20T14:13:46.705Z,6.33
2018-08-20T14:16:15.052Z,6.73
2018-08-20T14:18:43.366Z,6.60
2018-08-20T14:21:12.746Z,7.30
2018-08-20T14:23:45.029Z,7.17
2018-08-20T14:26:13.569Z,7.73
2018-08-20T14:28:41.890Z,7.53
2018-08-20T14:31:10.268Z,7.37
2018-08-20T14:33:38.636Z,7.60
2018-08-20T14:36:07.292Z,7.63
2018-08-20T14:38:35.745Z,7.00
2018-08-20T14:41:05.152Z,7.50
2018-08-20T14:43:34.511Z,7.43
2018-08-20T14:46:08.149Z,7.43
2018-08-20T14:48:36.489Z,7.60
2018-08-20T14:51:04.931Z,7.87
2018-08-20T14:53:34.228Z,7.97
2018-08-20T14:56:02.564Z,7.37
2018-08-20T14:58:30.941Z,7.87
2018-08-20T15:00:59.795Z,8.00
2018-08-20T15:03:28.176Z,7.63
2018-08-20T15:05:56.490Z,7.80
2018-08-20T15:08:24.895Z,7.63
2018-08-20T15:10:53.205Z,6.93
2018-08-20T15:13:21.515Z,7.43
2018-08-20T15:15:49.881Z,7.73
2018-08-20T15:18:18.242Z,7.00
2018-08-20T15:20:46.547Z,7.10
2018-08-20T15:23:14.880Z,6.23
2018-08-20T15:25:43.310Z,6.00
2018-08-20T15:28:11.894Z,6.27
2018-08-20T15:30:40.206Z,5.77
2018-08-20T15:33:08.695Z,5.40
2018-08-20T15:35:37.087Z,5.90
2018-08-20T15:38:09.665Z,5.90
2018-08-20T15:40:38.001Z,5.20
2018-08-20T15:43:06.457Z,6.77
2018-08-20T15:45:34.773Z,5.30
2018-08-20T15:48:03.174Z,6.10
2018-08-20T15:50:31.504Z,5.73
2018-08-20T15:52:59.964Z,5.20
2018-08-20T15:55:28.277Z,4.47
2018-08-20T15:57:56.575Z,4.80
2018-08-20T16:00:24.991Z,3.63
2018-08-20T16:02:53.409Z,2.10
2018-08-20T16:05:21.969Z,1.83
2018-08-20T16:07:50.408Z,1.93
2018-08-20T16:10:18.752Z,1.90
2018-08-20T16:12:47.030Z,1.73
2018-08-20T16:15:15.361Z,1.70
2018-08-20T16:17:44.677Z,1.30
2018-08-20T16:20:13.075Z,1.50
2018-08-20T16:22:41.428Z,1.97
2018-08-20T16:25:09.792Z,2.60
2018-08-20T16:27:38.132Z,2.63
2018-08-20T16:30:09.442Z,2.77
2018-08-20T16:32:37.793Z,3.23
2018-08-20T16:35:37.562Z,2.93
2018-08-20T16:38:06.606Z,2.70
2018-08-20T16:40:34.974Z,2.63
2018-08-20T16:43:04.027Z,1.53
2018-08-20T16:45:32.501Z,2.10
2018-08-20T16:48:00.803Z,2.30
2018-08-20T16:50:29.188Z,2.20
2018-08-20T16:52:57.540Z,1.93
2018-08-20T16:55:25.908Z,2.33
2018-08-20T16:57:54.881Z,3.00
2018-08-20T17:00:23.255Z,3.33
2018-08-20T17:02:51.657Z,3.20
2018-08-20T17:05:19.961Z,3.00
2018-08-20T17:07:48.261Z,3.33
2018-08-20T17:10:20.777Z,3.40
2018-08-20T17:12:49.151Z,3.43
2018-08-20T17:15:19.729Z,3.30
2018-08-20T17:17:48.039Z,3.27
2018-08-20T17:20:17.336Z,3.23
2018-08-20T17:22:45.696Z,3.10
2018-08-20T17:25:14.635Z,3.40
2018-08-20T17:27:45.353Z,3.03
2018-08-20T17:30:13.704Z,2.90
2018-08-20T17:32:42.038Z,2.70
2018-08-20T17:35:10.383Z,2.95
2018-08-20T17:37:38.671Z,2.80
2018-08-20T17:40:09.832Z,2.93
2018-08-20T17:42:38.252Z,3.03
2018-08-20T17:45:08.140Z,2.90
2018-08-20T17:47:38.791Z,3.30
2018-08-20T17:50:16.092Z,3.23
2018-08-20T17:52:44.458Z,3.50
2018-08-20T17:55:12.919Z,3.40
2018-08-20T17:57:41.216Z,3.00
2018-08-20T18:00:48.005Z,3.20
2018-08-20T18:03:26.284Z,3.30
2018-08-20T18:05:56.781Z,3.70
2018-08-20T18:08:26.205Z,3.87
2018-08-20T18:10:55.628Z,3.47
2018-08-20T18:13:38.173Z,4.17
2018-08-20T18:16:07.697Z,3.73
2018-08-20T18:18:36.624Z,5.57
2018-08-20T18:21:05.005Z,4.70
2018-08-20T18:23:34.277Z,5.97
2018-08-20T18:26:02.728Z,5.03
2018-08-20T18:28:41.126Z,3.80
2018-08-20T18:31:12.070Z,4.00
2018-08-20T18:33:41.544Z,3.37
2018-08-20T18:36:17.227Z,3.27
2018-08-20T18:38:54.054Z,3.17
2018-08-20T18:41:32.379Z,3.07
2018-08-20T18:44:00.736Z,2.80
2018-08-20T18:46:29.125Z,3.20
2018-08-20T18:48:57.492Z,2.90
2018-08-20T18:51:25.788Z,2.70
2018-08-20T18:53:55.773Z,2.87
2018-08-20T18:56:24.086Z,3.70
2018-08-20T18:58:52.410Z,3.97
2018-08-20T19:01:20.683Z,3.10
2018-08-20T19:03:49.639Z,2.87
2018-08-20T19:06:18.404Z,2.80
2018-08-20T19:08:46.661Z,2.47
2018-08-20T19:11:14.996Z,2.60
2018-08-20T19:13:44.063Z,2.43
2018-08-20T19:16:35.452Z,2.40
2018-08-20T19:19:05.322Z,2.30
2018-08-20T19:21:37.321Z,2.30
2018-08-20T19:24:06.121Z,2.80
2018-08-20T19:26:34.400Z,2.77
2018-08-20T19:29:28.009Z,2.80
2018-08-20T19:31:56.349Z,2.70
2018-08-20T19:34:24.610Z,2.50
2018-08-20T19:36:52.905Z,3.00
2018-08-20T19:39:21.939Z,2.73
2018-08-20T19:41:50.207Z,2.83
2018-08-20T19:44:18.559Z,3.05
2018-08-20T19:46:46.848Z,3.00
2018-08-20T19:49:15.793Z,3.40
2018-08-20T19:51:45.328Z,3.00
2018-08-20T19:54:15.104Z,3.20
2018-08-20T19:56:44.399Z,3.33
2018-08-20T19:59:13.333Z,3.67
2018-08-20T20:01:42.423Z,3.73
2018-08-20T20:04:15.228Z,3.83
2018-08-20T20:06:44.029Z,4.50
2018-08-20T20:09:12.484Z,4.20
2018-08-20T20:11:51.377Z,3.77
2018-08-20T20:14:19.701Z,3.75
2018-08-20T20:16:52.735Z,4.40
2018-08-20T20:19:21.180Z,3.53
2018-08-20T20:21:49.578Z,3.83
2018-08-20T20:24:17.953Z,4.20
2018-08-20T20:26:46.284Z,4.40
2018-08-20T20:29:14.559Z,4.60
2018-08-20T20:31:43.480Z,5.20
2018-08-20T20:34:11.855Z,5.33
2018-08-20T20:36:40.275Z,5.60
2018-08-20T20:39:11.059Z,5.27
2018-08-20T20:41:39.575Z,6.13
2018-08-20T20:44:08.426Z,6.30
2018-08-20T20:46:36.768Z,6.10
2018-08-20T20:49:05.226Z,5.90
2018-08-20T20:51:33.528Z,5.53
2018-08-20T20:54:01.834Z,5.87
2018-08-20T20:56:30.213Z,6.83
2018-08-20T20:58:58.547Z,6.20
2018-08-20T21:01:26.865Z,6.20
2018-08-20T21:03:55.185Z,5.87
2018-08-20T21:06:23.516Z,6.70
2018-08-20T21:08:52.172Z,6.63
2018-08-20T21:11:21.676Z,6.97
2018-08-20T21:13:49.945Z,7.33
2018-08-20T21:16:21.798Z,6.87
2018-08-20T21:18:54.212Z,7.30
2018-08-20T21:21:23.200Z,6.60
2018-08-20T21:23:51.637Z,6.67
2018-08-20T21:26:20.092Z,6.00
2018-08-20T21:28:49.329Z,6.07
2018-08-20T21:31:18.722Z,6.10
2018-08-20T21:33:47.553Z,6.60
2018-08-20T21:36:16.230Z,6.50
2018-08-20T21:38:45.233Z,6.77
2018-08-20T21:41:13.666Z,6.40
2018-08-20T21:43:47.753Z,5.90
2018-08-20T21:46:16.410Z,5.97
2018-08-20T21:48:45.117Z,6.13
2018-08-20T21:51:34.122Z,5.62
2018-08-20T21:54:02.373Z,6.75
2018-08-20T21:56:41.844Z,6.40
2018-08-20T21:59:10.148Z,6.40
2018-08-20T22:01:38.450Z,6.67
2018-08-20T22:04:12.106Z,6.47
2018-08-20T22:06:40.400Z,6.87
2018-08-20T22:09:08.665Z,6.23
2018-08-20T22:11:36.961Z,6.70
2018-08-20T22:14:05.243Z,6.60
2018-08-20T22:16:33.691Z,6.67
2018-08-20T22:19:02.002Z,7.20
2018-08-20T22:21:30.262Z,7.23
2018-08-20T22:24:00.702Z,7.30
2018-08-20T22:26:29.145Z,7.27
2018-08-20T22:28:58.034Z,7.20
2018-08-20T22:31:26.389Z,7.47
2018-08-20T22:34:00.103Z,7.13
2018-08-20T22:36:29.627Z,6.97
2018-08-20T22:38:59.965Z,7.17
2018-08-20T22:41:29.272Z,7.67
2018-08-20T22:43:58.471Z,7.80
2018-08-20T22:46:27.082Z,7.40
2018-08-20T22:48:58.043Z,7.70
2018-08-20T22:51:27.499Z,7.47
2018-08-20T22:53:57.645Z,7.60
2018-08-20T22:56:27.472Z,7.63
2018-08-20T22:59:05.311Z,7.33
2018-08-20T23:01:33.717Z,7.12
2018-08-20T23:04:02.000Z,7.40
2018-08-20T23:06:30.697Z,7.50
2018-08-20T23:08:59.307Z,7.00
2018-08-20T23:11:39.458Z,6.93
2018-08-20T23:14:09.314Z,6.70
2018-08-20T23:16:37.974Z,6.77
2018-08-20T23:19:06.348Z,6.80
2018-08-20T23:21:40.249Z,6.13
2018-08-20T23:24:08.589Z,6.50
2018-08-20T23:26:36.896Z,6.80
2018-08-20T23:29:05.247Z,6.20
2018-08-20T23:31:33.593Z,6.17
2018-08-20T23:34:01.922Z,6.00
2018-08-20T23:36:30.223Z,5.97
2018-08-20T23:38:58.491Z,6.47
2018-08-20T23:41:26.788Z,6.27
2018-08-20T23:43:59.952Z,6.73
2018-08-20T23:46:33.635Z,6.80
2018-08-20T23:49:02.571Z,6.70
2018-08-20T23:51:30.999Z,6.43
2018-08-20T23:53:59.954Z,6.63
2018-08-20T23:56:28.223Z,6.47
2018-08-20T23:58:56.604Z,6.93
